PATL/TLJ METAR and TAF weather

Enter ICAO airport designator
Station Type Date Time Source
PATL METAR 2019/08/24 07:55 UTC NOAA

PATL 240755Z AUTO 03003KT 10SM BKN055 11/05 A2973 RMK AO2 SLP066 T01100045


Station Type Date Time Source
PATL Decoded METAR 2019/08/24 07:55 UTC NOAA

Station name not available
Aug 24, 2019 - 03:55 AM EDT / 2019.08.24 0755 UTC
Wind: from the NNE (030 degrees) at 3 MPH (3 KT):0
Visibility: 10 mile(s):0
Sky conditions: mostly cloudy
Temperature: 51.8 F (11.0 C)
Dew Point: 40.1 F (4.5 C)
Relative Humidity: 64%
Pressure (altimeter): 29.73 in. Hg (1006 hPa)
ob: PATL 240755Z AUTO 03003KT 10SM BKN055 11/05 A2973 RMK AO2 SLP066 T01100045
cycle: 8

Station Type Date Time Source
PATL TAF 2012/01/12 14:06 UTC NOAA

TAF PATL 1214/1320 VRB06KT 9999 FEW050 SCT110 QNH2998INS TM26/1300Z TM32/1315Z

Example: see airport list